»·PEaware :: N1128 KTUS-KLAS

N1128 :: KTUS-KLAS

FLIGHT INFORMATION

Flight Status: Arrived
Operator: Privately registered:
United States
More flights under this callsign
Pilot: Siddique N. (20419)
Aircraft: Unknown
(BT7)
More flights by this aircraft type
Origin: KTUS Tucson Intl
United States
Destination: KLAS McCarran Intl
United States
More flights between these airports :: More routes between these airports
Route: +BURRO4 BBALL PXR J11 DRK TYSSN5
File this flight plan on PilotEdge
Remarks:
Altitude:
(Current/Filed)
25,000ft
Speed:
(Current/Filed)
350kts
Departed: 03-Oct-20 08:48 AM
Arrived: 03-Oct-20 09:52 AM
Distance/Time
Traveled:
317nm/1:04
Distance/Time
To Go:
Arrived

Flight Plot

Page will automatically refresh every two minutes.

Flight plan parsing failed; only flown route is shown


Map Options




Map Legend


Flown Route
Filed Route
Departure Airport
Arrival Airport
Navaid (VOR, NDB)
Fix

Horizontal Profiles

Position Reports

Time Latitude Longitude Heading Altitude Ground
Speed
03-Oct-20 08:32 32.123110 -110.944088 223 2582ft 0kts
03-Oct-20 08:33 32.123110 -110.944088 223 2582ft 0kts
03-Oct-20 08:34 32.123110 -110.944088 223 2582ft 0kts
03-Oct-20 08:35 32.123110 -110.944088 223 2582ft 0kts
03-Oct-20 08:36 32.123110 -110.944088 223 2582ft 0kts
03-Oct-20 08:37 32.123110 -110.944088 223 2582ft 0kts
03-Oct-20 08:38 32.123110 -110.944088 223 2582ft 0kts
03-Oct-20 08:39 32.123110 -110.944088 223 2582ft 0kts
03-Oct-20 08:40 32.123110 -110.944088 223 2582ft 0kts
03-Oct-20 08:41 32.124786 -110.947109 313 2573ft 15kts
03-Oct-20 08:42 32.125158 -110.947453 139 2572ft 8kts
03-Oct-20 08:43 32.123977 -110.946173 138 2577ft 0kts
03-Oct-20 08:44 32.123721 -110.946270 222 2577ft 7kts
03-Oct-20 08:45 32.123509 -110.946501 221 2577ft 0kts
03-Oct-20 08:46 32.123012 -110.947086 219 2577ft 10kts
03-Oct-20 08:47 32.121599 -110.945860 134 2582ft 64kts
03-Oct-20 08:48 32.083213 -110.899184 136 3405ft 213kts
03-Oct-20 08:49 32.038685 -110.853541 182 4950ft 225kts
03-Oct-20 08:50 31.993140 -110.901089 234 6734ft 241kts
03-Oct-20 08:51 31.970053 -110.971104 293 9407ft 259kts
03-Oct-20 08:52 32.005143 -111.043539 300 12458ft 285kts
03-Oct-20 08:53 32.046202 -111.122672 301 15110ft 272kts
03-Oct-20 08:54 32.087714 -111.196202 329 16905ft 288kts
03-Oct-20 08:55 32.175767 -111.224922 343 16925ft 353kts
03-Oct-20 08:56 32.269925 -111.255044 342 18319ft 332kts
03-Oct-20 08:57 32.353011 -111.283006 341 21251ft 288kts
03-Oct-20 08:58 32.442463 -111.312923 341 24383ft 388kts
03-Oct-20 08:59 32.563152 -111.354006 342 24969ft 480kts
03-Oct-20 09:00 32.692274 -111.397851 343 24964ft 477kts
03-Oct-20 09:02 32.821767 -111.435892 344 24937ft 475kts
03-Oct-20 09:03 32.949237 -111.478565 335 24863ft 469kts
03-Oct-20 09:04 33.054778 -111.570528 319 24859ft 470kts
03-Oct-20 09:05 33.158217 -111.669527 316 24912ft 476kts
03-Oct-20 09:06 33.258163 -111.775189 315 24861ft 477kts
03-Oct-20 09:07 33.358238 -111.880728 316 24859ft 478kts
03-Oct-20 09:08 33.463813 -111.976817 341 24839ft 487kts
03-Oct-20 09:09 33.594036 -112.023868 339 24805ft 488kts
03-Oct-20 09:10 33.722965 -112.073593 339 24859ft 487kts
03-Oct-20 09:11 33.852444 -112.123232 339 24859ft 488kts
03-Oct-20 09:12 33.980561 -112.176889 337 24859ft 488kts
03-Oct-20 09:13 34.107902 -112.233352 336 24858ft 488kts
03-Oct-20 09:14 34.235431 -112.288899 340 24950ft 487kts
03-Oct-20 09:15 34.364121 -112.333819 339 25153ft 481kts
03-Oct-20 09:16 34.490393 -112.382763 337 25148ft 461kts
03-Oct-20 09:16 34.588880 -112.422735 336 25153ft 443kts
03-Oct-20 09:18 34.717473 -112.495375 307 25181ft 417kts
03-Oct-20 09:19 34.770999 -112.621664 292 25151ft 422kts
03-Oct-20 09:19 34.812868 -112.729141 292 25160ft 422kts
03-Oct-20 09:20 34.862338 -112.857893 291 25156ft 411kts
03-Oct-20 09:22 34.919036 -113.009450 291 25160ft 436kts
03-Oct-20 09:22 34.960375 -113.119744 291 25156ft 424kts
03-Oct-20 09:23 35.009801 -113.250895 291 25044ft 430kts
03-Oct-20 09:24 35.060334 -113.385137 291 25021ft 440kts
03-Oct-20 09:25 35.110971 -113.519286 291 25008ft 413kts
03-Oct-20 09:26 35.157204 -113.639550 292 24411ft 374kts
03-Oct-20 09:27 35.198693 -113.746633 291 22684ft 326kts
03-Oct-20 09:28 35.234034 -113.847022 288 21164ft 323kts
03-Oct-20 09:29 35.267159 -113.946810 299 20019ft 311kts
03-Oct-20 09:30 35.339975 -114.008456 322 19249ft 323kts
03-Oct-20 09:31 35.412577 -114.069730 321 19015ft 302kts
03-Oct-20 09:32 35.480036 -114.130756 319 19013ft 290kts
03-Oct-20 09:33 35.544164 -114.188832 318 17020ft 278kts
03-Oct-20 09:34 35.603897 -114.244725 318 14998ft 266kts
03-Oct-20 09:35 35.662636 -114.300770 318 12993ft 264kts
03-Oct-20 09:36 35.719267 -114.354594 318 11890ft 252kts
03-Oct-20 09:37 35.783388 -114.396275 337 11883ft 267kts
03-Oct-20 09:38 35.853804 -114.426126 337 11206ft 264kts
03-Oct-20 09:39 35.922144 -114.456808 333 10190ft 259kts
03-Oct-20 09:40 35.985917 -114.490033 333 9883ft 232kts
03-Oct-20 09:41 36.044435 -114.530515 296 9871ft 235kts
03-Oct-20 09:42 36.060784 -114.609325 279 8998ft 247kts
03-Oct-20 09:43 36.070000 -114.687720 273 7903ft 218kts
03-Oct-20 09:44 36.074467 -114.758508 271 6228ft 199kts
03-Oct-20 09:45 36.077234 -114.825134 270 4864ft 196kts
03-Oct-20 09:46 36.080399 -114.893866 270 4833ft 202kts
03-Oct-20 09:47 36.077980 -114.964087 264 4136ft 193kts
03-Oct-20 09:48 36.075065 -115.024238 263 3000ft 169kts
03-Oct-20 09:49 36.073778 -115.080787 270 2599ft 156kts
03-Oct-20 09:50 36.073725 -115.133115 269 2062ft 125kts
03-Oct-20 09:51 36.074344 -115.149725 297 2115ft 0kts
03-Oct-20 09:52 36.075388 -115.151392 333 2119ft 17kts
03-Oct-20 09:53 36.080104 -115.154057 333 2120ft 15kts

Navigation Log

Ident Type
Flight plan parsing failed, navigation log unavailable